createdAt,value
2023-02-19T00:00:27.831Z,73.06
2023-02-19T00:01:28.000Z,73.06
2023-02-19T00:02:28.187Z,73.06
2023-02-19T00:03:28.370Z,73.06
2023-02-19T00:04:28.519Z,73.06
2023-02-19T00:05:28.688Z,73.16
2023-02-19T00:06:28.858Z,72.96
2023-02-19T00:07:29.037Z,73.06
2023-02-19T00:08:29.204Z,72.96
2023-02-19T00:09:29.367Z,72.75
2023-02-19T00:10:29.539Z,72.86
2023-02-19T00:11:29.723Z,72.65
2023-02-19T00:12:29.976Z,72.65
2023-02-19T00:13:30.058Z,72.65
2023-02-19T00:14:30.225Z,72.65
2023-02-19T00:15:30.426Z,72.65
2023-02-19T00:16:30.572Z,72.55
2023-02-19T00:17:30.750Z,72.65
2023-02-19T00:18:30.917Z,72.65
2023-02-19T00:19:31.078Z,72.65
2023-02-19T00:20:31.254Z,72.65
2023-02-19T00:21:31.417Z,72.55
2023-02-19T00:22:31.605Z,72.55
2023-02-19T00:23:31.771Z,72.72
2023-02-19T00:24:31.938Z,72.75
2023-02-19T00:25:32.097Z,72.75
2023-02-19T00:26:32.272Z,72.86
2023-02-19T00:27:32.446Z,72.75
2023-02-19T00:28:32.612Z,72.62
2023-02-19T00:29:32.777Z,72.55
2023-02-19T00:30:32.964Z,72.55
2023-02-19T00:31:33.588Z,72.41
2023-02-19T00:32:33.301Z,72.31
2023-02-19T00:33:33.469Z,72.55
2023-02-19T00:34:33.637Z,72.45
2023-02-19T00:35:33.807Z,72.45
2023-02-19T00:36:33.968Z,72.34
2023-02-19T00:37:34.161Z,72.45
2023-02-19T00:38:34.292Z,72.34
2023-02-19T00:39:34.452Z,72.34
2023-02-19T00:40:34.633Z,72.34
2023-02-19T00:41:34.797Z,72.45
2023-02-19T00:42:34.970Z,72.34
2023-02-19T00:43:35.139Z,72.34
2023-02-19T00:44:35.301Z,72.24
2023-02-19T00:45:35.467Z,72.34
2023-02-19T00:46:35.729Z,72.34
2023-02-19T00:47:35.833Z,72.45
2023-02-19T00:48:36.001Z,72.34
2023-02-19T00:49:36.160Z,72.24
2023-02-19T00:50:36.328Z,72.34
2023-02-19T00:51:36.510Z,72.34
2023-02-19T00:52:36.691Z,72.45
2023-02-19T00:53:36.867Z,72.34
2023-02-19T00:54:37.025Z,72.24
2023-02-19T00:55:37.195Z,72.34
2023-02-19T00:56:37.365Z,72.34
2023-02-19T00:57:37.542Z,72.34
2023-02-19T00:58:37.704Z,72.34
2023-02-19T00:59:37.872Z,72.45
2023-02-19T01:00:38.043Z,72.45
2023-02-19T01:01:38.219Z,72.45
2023-02-19T01:02:38.389Z,72.34
2023-02-19T01:03:38.559Z,72.24
2023-02-19T01:04:38.740Z,72.04
2023-02-19T01:05:38.915Z,71.94
2023-02-19T01:06:39.070Z,71.77
2023-02-19T01:07:39.243Z,71.56
2023-02-19T01:08:39.396Z,71.45
2023-02-19T01:09:39.567Z,71.45
2023-02-19T01:10:39.735Z,71.36
2023-02-19T01:11:39.895Z,71.45
2023-02-19T01:12:40.077Z,71.56
2023-02-19T01:13:40.256Z,71.66
2023-02-19T01:14:40.414Z,71.25
2023-02-19T01:15:40.575Z,71.15
2023-02-19T01:16:40.740Z,71.15
2023-02-19T01:17:40.944Z,71.25
2023-02-19T01:18:41.072Z,71.25
2023-02-19T01:19:41.245Z,70.84
2023-02-19T01:20:41.404Z,71.25
2023-02-19T01:21:41.563Z,70.94
2023-02-19T01:22:41.742Z,70.94
2023-02-19T01:23:41.911Z,71.15
2023-02-19T01:24:42.072Z,70.94
2023-02-19T01:25:42.243Z,70.94
2023-02-19T01:26:42.411Z,70.94
2023-02-19T01:27:42.601Z,70.64
2023-02-19T01:28:42.764Z,70.84
2023-02-19T01:29:42.924Z,70.74
2023-02-19T01:30:43.080Z,70.64
2023-02-19T01:31:43.385Z,70.43
2023-02-19T01:32:43.431Z,70.74
2023-02-19T01:33:43.613Z,70.64
2023-02-19T01:34:43.781Z,70.53
2023-02-19T01:35:43.947Z,70.74
2023-02-19T01:36:44.121Z,70.53
2023-02-19T01:37:44.327Z,70.74
2023-02-19T01:38:44.467Z,70.77
2023-02-19T01:39:44.633Z,70.74
2023-02-19T01:40:44.794Z,70.77
2023-02-19T01:41:44.971Z,70.87
2023-02-19T01:42:45.158Z,70.77
2023-02-19T01:43:45.322Z,70.64
2023-02-19T01:44:45.483Z,70.64
2023-02-19T01:45:45.654Z,70.74
2023-02-19T01:46:45.843Z,70.84
2023-02-19T01:47:46.004Z,70.74
2023-02-19T01:48:46.160Z,70.84
2023-02-19T01:49:46.324Z,70.94
2023-02-19T01:50:46.486Z,70.84
2023-02-19T01:51:46.663Z,70.84
2023-02-19T01:52:46.844Z,71.04
2023-02-19T01:53:47.030Z,71.04
2023-02-19T01:54:47.184Z,70.94
2023-02-19T01:55:47.374Z,70.74
2023-02-19T01:56:47.531Z,70.94
2023-02-19T01:57:47.700Z,70.84
2023-02-19T01:58:47.865Z,70.64
2023-02-19T01:59:48.049Z,70.64
2023-02-19T02:00:48.218Z,70.53
2023-02-19T02:01:48.436Z,70.84
2023-02-19T02:02:48.573Z,70.74
2023-02-19T02:03:48.744Z,70.33
2023-02-19T02:04:48.910Z,70.43
2023-02-19T02:05:49.073Z,70.53
2023-02-19T02:06:49.262Z,70.43
2023-02-19T02:07:49.433Z,70.64
2023-02-19T02:08:49.593Z,70.64
2023-02-19T02:09:49.802Z,70.53
2023-02-19T02:10:49.946Z,70.53
2023-02-19T02:11:50.118Z,70.53
2023-02-19T02:12:50.309Z,70.43
2023-02-19T02:13:50.464Z,70.43
2023-02-19T02:14:50.642Z,70.43
2023-02-19T02:15:50.804Z,70.53
2023-02-19T02:16:50.965Z,70.43
2023-02-19T02:17:51.148Z,70.33
2023-02-19T02:18:51.333Z,70.23
2023-02-19T02:19:51.479Z,70.23
2023-02-19T02:20:51.633Z,70.12
2023-02-19T02:21:51.807Z,70.23
2023-02-19T02:22:51.987Z,70.03
2023-02-19T02:23:52.154Z,70.23
2023-02-19T02:24:52.306Z,70.23
2023-02-19T02:25:52.497Z,70.12
2023-02-19T02:26:52.645Z,70.33
2023-02-19T02:27:52.812Z,70.33
2023-02-19T02:28:53.000Z,70.03
2023-02-19T02:29:53.163Z,70.03
2023-02-19T02:30:53.350Z,70.23
2023-02-19T02:31:53.543Z,70.23
2023-02-19T02:32:53.718Z,70.43
2023-02-19T02:33:53.877Z,70.53
2023-02-19T02:34:54.037Z,70.43
2023-02-19T02:35:54.210Z,70.43
2023-02-19T02:36:54.364Z,70.53
2023-02-19T02:37:54.535Z,70.47
2023-02-19T02:38:54.705Z,70.53
2023-02-19T02:39:54.895Z,70.47
2023-02-19T02:40:55.036Z,70.57
2023-02-19T02:41:55.202Z,70.57
2023-02-19T02:42:55.366Z,70.57
2023-02-19T02:43:55.544Z,70.87
2023-02-19T02:44:55.706Z,70.98
2023-02-19T02:45:55.904Z,71.08
2023-02-19T02:46:56.045Z,71.28
2023-02-19T02:47:56.205Z,71.39
2023-02-19T02:48:56.383Z,71.39
2023-02-19T02:49:56.545Z,71.73
2023-02-19T02:50:56.713Z,71.62
2023-02-19T02:51:56.874Z,71.52
2023-02-19T02:52:57.035Z,71.42
2023-02-19T02:53:57.222Z,71.52
2023-02-19T02:54:57.382Z,71.73
2023-02-19T02:55:57.555Z,71.73
2023-02-19T02:56:57.714Z,71.73
2023-02-19T02:57:57.882Z,71.83
2023-02-19T02:58:58.064Z,71.83
2023-02-19T02:59:58.236Z,71.83
2023-02-19T03:00:58.442Z,72.07
2023-02-19T03:01:58.609Z,72.07
2023-02-19T03:02:58.763Z,72.27
2023-02-19T03:03:58.936Z,72.27
2023-02-19T03:04:59.093Z,72.27
2023-02-19T03:05:59.263Z,71.97
2023-02-19T03:06:59.427Z,72.20
2023-02-19T03:07:59.638Z,72.41
2023-02-19T03:08:59.799Z,72.41
2023-02-19T03:09:59.956Z,72.41
2023-02-19T03:11:00.119Z,72.82
2023-02-19T03:12:00.282Z,72.65
2023-02-19T03:13:00.448Z,73.06
2023-02-19T03:14:00.622Z,72.75
2023-02-19T03:15:00.774Z,72.75
2023-02-19T03:16:00.972Z,72.96
2023-02-19T03:17:01.123Z,73.47
2023-02-19T03:18:01.323Z,73.57
2023-02-19T03:19:01.491Z,73.47
2023-02-19T03:20:01.641Z,73.27
2023-02-19T03:21:01.813Z,72.65
2023-02-19T03:22:01.995Z,72.44
2023-02-19T03:23:02.174Z,72.78
2023-02-19T03:24:02.340Z,72.58
2023-02-19T03:25:02.495Z,72.58
2023-02-19T03:26:02.693Z,71.55
2023-02-19T03:27:02.851Z,71.86
2023-02-19T03:28:03.009Z,72.27
2023-02-19T03:29:03.208Z,72.51
2023-02-19T03:30:03.422Z,73.23
2023-02-19T03:31:03.559Z,72.72
2023-02-19T03:32:03.766Z,72.41
2023-02-19T03:33:03.868Z,72.82
2023-02-19T03:34:04.088Z,73.33
2023-02-19T03:35:04.245Z,72.72
2023-02-19T03:36:04.457Z,72.82
2023-02-19T03:37:04.587Z,72.61
2023-02-19T03:38:04.794Z,71.93
2023-02-19T03:39:04.958Z,72.55
2023-02-19T03:40:05.116Z,71.62
2023-02-19T03:41:05.276Z,72.65
2023-02-19T03:42:05.439Z,72.58
2023-02-19T03:43:05.601Z,72.38
2023-02-19T03:44:05.810Z,72.38
2023-02-19T03:45:05.956Z,73.40
2023-02-19T03:46:06.166Z,72.41
2023-02-19T03:47:06.289Z,72.81
2023-02-19T03:48:06.446Z,72.72
2023-02-19T03:49:06.626Z,73.33
2023-02-19T03:50:06.794Z,72.81
2023-02-19T03:51:06.947Z,73.78
2023-02-19T03:52:07.149Z,73.47
2023-02-19T03:53:07.304Z,72.85
2023-02-19T03:54:07.510Z,73.36
2023-02-19T03:55:07.677Z,73.47
2023-02-19T03:56:07.845Z,72.96
2023-02-19T03:57:07.998Z,73.16
2023-02-19T03:58:08.196Z,73.57
2023-02-19T03:59:08.380Z,73.26
2023-02-19T04:00:08.539Z,73.06
2023-02-19T04:01:08.858Z,73.98
2023-02-19T04:02:08.907Z,72.47
2023-02-19T04:03:09.050Z,73.30
2023-02-19T04:04:09.222Z,74.63
2023-02-19T04:05:09.391Z,74.95
2023-02-19T04:06:09.549Z,74.43
2023-02-19T04:07:09.714Z,74.53
2023-02-19T04:08:09.909Z,73.50
2023-02-19T04:09:10.093Z,73.30
2023-02-19T04:10:10.249Z,72.88
2023-02-19T04:11:10.741Z,73.40
2023-02-19T04:12:10.604Z,73.19
2023-02-19T04:13:10.765Z,73.13
2023-02-19T04:14:10.945Z,73.23
2023-02-19T04:15:11.100Z,72.41
2023-02-19T04:16:11.290Z,72.71
2023-02-19T04:17:11.462Z,72.75
2023-02-19T04:18:11.649Z,73.36
2023-02-19T04:19:11.838Z,73.68
2023-02-19T04:20:12.003Z,73.36
2023-02-19T04:21:12.443Z,73.16
2023-02-19T04:22:12.335Z,73.88
2023-02-19T04:23:12.493Z,74.08
2023-02-19T04:24:12.694Z,74.60
2023-02-19T04:25:12.839Z,74.50
2023-02-19T04:26:13.041Z,73.57
2023-02-19T04:27:13.209Z,74.08
2023-02-19T04:28:13.394Z,73.88
2023-02-19T04:29:13.564Z,72.88
2023-02-19T04:30:13.775Z,73.60
2023-02-19T04:31:14.286Z,73.91
2023-02-19T04:32:14.065Z,74.53
2023-02-19T04:33:14.214Z,74.12
2023-02-19T04:34:14.425Z,73.85
2023-02-19T04:35:14.577Z,74.36
2023-02-19T04:36:14.770Z,73.95
2023-02-19T04:37:14.923Z,74.57
2023-02-19T04:38:15.112Z,74.67
2023-02-19T04:39:15.283Z,74.88
2023-02-19T04:40:15.467Z,74.88
2023-02-19T04:41:15.625Z,75.29
2023-02-19T04:42:15.782Z,74.36
2023-02-19T04:43:15.949Z,74.36
2023-02-19T04:44:16.140Z,75.29
2023-02-19T04:45:16.332Z,75.29
2023-02-19T04:46:16.542Z,75.29
2023-02-19T04:47:16.679Z,74.26
2023-02-19T04:48:16.851Z,73.64
2023-02-19T04:49:17.009Z,74.57
2023-02-19T04:50:17.199Z,74.77
2023-02-19T04:51:17.363Z,75.09
2023-02-19T04:52:17.521Z,74.98
2023-02-19T04:53:17.681Z,74.77
2023-02-19T04:54:17.851Z,74.88
2023-02-19T04:55:18.019Z,75.29
2023-02-19T04:56:18.170Z,75.39
2023-02-19T04:57:18.330Z,75.18
2023-02-19T04:58:18.487Z,75.70
2023-02-19T04:59:18.657Z,75.60
2023-02-19T05:00:18.827Z,75.36
2023-02-19T05:01:19.007Z,75.05
2023-02-19T05:02:19.155Z,75.15
2023-02-19T05:03:19.337Z,75.56
2023-02-19T05:04:19.516Z,75.46
2023-02-19T05:05:19.676Z,74.63
2023-02-19T05:06:19.832Z,74.74
2023-02-19T05:07:20.021Z,75.26
2023-02-19T05:08:20.179Z,75.46
2023-02-19T05:09:20.357Z,74.53
2023-02-19T05:10:20.513Z,74.12
2023-02-19T05:11:20.692Z,74.63
2023-02-19T05:12:20.846Z,74.33
2023-02-19T05:13:21.027Z,74.22
2023-02-19T05:14:21.193Z,74.53
2023-02-19T05:15:21.347Z,73.91
2023-02-19T05:16:21.524Z,74.02
2023-02-19T05:17:21.711Z,74.22
2023-02-19T05:18:21.856Z,74.22
2023-02-19T05:19:22.040Z,74.33
2023-02-19T05:20:22.193Z,74.53
2023-02-19T05:21:22.360Z,74.22
2023-02-19T05:22:22.517Z,73.81
2023-02-19T05:23:22.685Z,74.33
2023-02-19T05:24:22.853Z,74.22
2023-02-19T05:25:23.015Z,74.74
2023-02-19T05:26:23.222Z,73.81
2023-02-19T05:27:23.355Z,74.33
2023-02-19T05:28:23.514Z,74.53
2023-02-19T05:29:23.725Z,74.53
2023-02-19T05:30:23.929Z,74.02
2023-02-19T05:31:24.199Z,74.74
2023-02-19T05:32:24.217Z,74.33
2023-02-19T05:33:24.384Z,74.22
2023-02-19T05:34:24.565Z,74.53
2023-02-19T05:35:24.724Z,74.53
2023-02-19T05:36:24.886Z,74.33
2023-02-19T05:37:25.048Z,74.12
2023-02-19T05:38:25.208Z,74.22
2023-02-19T05:39:25.381Z,74.63
2023-02-19T05:40:25.544Z,73.60
2023-02-19T05:41:25.742Z,74.02
2023-02-19T05:42:25.883Z,73.60
2023-02-19T05:43:26.046Z,74.12
2023-02-19T05:44:26.211Z,73.91
2023-02-19T05:45:26.373Z,73.81
2023-02-19T05:46:26.570Z,73.81
2023-02-19T05:47:26.703Z,73.91
2023-02-19T05:48:26.864Z,74.33
2023-02-19T05:49:27.070Z,74.74
2023-02-19T05:50:27.226Z,74.53
2023-02-19T05:51:27.425Z,74.02
2023-02-19T05:52:27.571Z,74.22
2023-02-19T05:53:27.773Z,73.71
2023-02-19T05:54:27.952Z,73.50
2023-02-19T05:55:28.119Z,73.81
2023-02-19T05:56:28.271Z,74.12
2023-02-19T05:57:28.465Z,74.33
2023-02-19T05:58:28.624Z,73.60
2023-02-19T05:59:28.805Z,73.60
2023-02-19T06:00:28.979Z,73.81
2023-02-19T06:01:29.152Z,73.91
2023-02-19T06:02:29.360Z,74.22
2023-02-19T06:03:29.555Z,74.33
2023-02-19T06:04:29.693Z,73.40
2023-02-19T06:05:29.840Z,73.60
2023-02-19T06:06:30.030Z,73.71
2023-02-19T06:07:30.199Z,73.91
2023-02-19T06:08:30.379Z,74.22
2023-02-19T06:09:30.572Z,74.02
2023-02-19T06:10:30.713Z,74.33
2023-02-19T06:11:30.890Z,74.33
2023-02-19T06:12:31.069Z,73.30
2023-02-19T06:13:31.261Z,73.81
2023-02-19T06:14:31.421Z,74.12
2023-02-19T06:15:31.582Z,73.50
2023-02-19T06:16:31.759Z,73.30
2023-02-19T06:17:31.943Z,74.02
2023-02-19T06:18:32.162Z,74.43
2023-02-19T06:19:32.338Z,74.02
2023-02-19T06:20:32.468Z,73.30
2023-02-19T06:21:32.669Z,73.60
2023-02-19T06:22:32.818Z,73.40
2023-02-19T06:23:33.104Z,74.02
2023-02-19T06:24:33.214Z,73.98
2023-02-19T06:25:33.353Z,74.08
2023-02-19T06:26:33.566Z,73.47
2023-02-19T06:27:33.730Z,73.57
2023-02-19T06:28:33.883Z,73.68
2023-02-19T06:29:34.093Z,73.57
2023-02-19T06:30:34.272Z,73.57
2023-02-19T06:31:34.462Z,73.68
2023-02-19T06:32:34.572Z,73.47
2023-02-19T06:33:34.762Z,74.08
2023-02-19T06:34:34.964Z,73.64
2023-02-19T06:35:35.102Z,73.95
2023-02-19T06:36:35.292Z,73.64
2023-02-19T06:37:35.484Z,73.43
2023-02-19T06:38:35.638Z,73.43
2023-02-19T06:39:35.836Z,73.43
2023-02-19T06:40:36.011Z,73.13
2023-02-19T06:41:36.202Z,72.71
2023-02-19T06:42:36.352Z,72.99
2023-02-19T06:43:36.543Z,72.99
2023-02-19T06:44:36.712Z,72.06
2023-02-19T06:45:36.863Z,72.78
2023-02-19T06:46:37.196Z,72.88
2023-02-19T06:47:37.220Z,72.47
2023-02-19T06:48:37.403Z,72.58
2023-02-19T06:49:37.620Z,72.99
2023-02-19T06:50:37.742Z,72.88
2023-02-19T06:51:37.933Z,72.88
2023-02-19T06:52:38.082Z,72.68
2023-02-19T06:53:38.273Z,72.47
2023-02-19T06:54:38.470Z,72.47
2023-02-19T06:55:38.629Z,72.58
2023-02-19T06:56:38.780Z,72.47
2023-02-19T06:57:38.966Z,71.44
2023-02-19T06:58:39.128Z,72.13
2023-02-19T06:59:39.336Z,72.03
2023-02-19T07:00:39.497Z,72.13
2023-02-19T07:01:39.666Z,71.51
2023-02-19T07:02:39.817Z,71.72
2023-02-19T07:03:39.970Z,71.62
2023-02-19T07:04:40.150Z,71.51
2023-02-19T07:05:40.312Z,71.41
2023-02-19T07:06:40.473Z,71.24
2023-02-19T07:07:40.638Z,71.55
2023-02-19T07:08:40.819Z,72.13
2023-02-19T07:09:41.029Z,72.03
2023-02-19T07:10:41.187Z,72.03
2023-02-19T07:11:41.375Z,71.62
2023-02-19T07:12:41.547Z,71.20
2023-02-19T07:13:41.737Z,71.72
2023-02-19T07:14:41.930Z,71.41
2023-02-19T07:15:42.116Z,71.82
2023-02-19T07:16:42.393Z,71.62
2023-02-19T07:17:42.453Z,71.37
2023-02-19T07:18:42.622Z,71.48
2023-02-19T07:19:42.816Z,71.69
2023-02-19T07:20:42.986Z,70.25
2023-02-19T07:21:43.163Z,71.17
2023-02-19T07:22:43.339Z,70.73
2023-02-19T07:23:43.516Z,70.73
2023-02-19T07:24:43.720Z,70.94
2023-02-19T07:25:43.890Z,70.32
2023-02-19T07:26:44.070Z,70.62
2023-02-19T07:27:44.254Z,70.21
2023-02-19T07:28:44.436Z,70.01
2023-02-19T07:29:44.649Z,70.28
2023-02-19T07:30:44.790Z,70.59
2023-02-19T07:31:44.987Z,70.18
2023-02-19T07:32:45.153Z,69.87
2023-02-19T07:33:45.332Z,69.87
2023-02-19T07:34:45.550Z,69.26
2023-02-19T07:35:45.680Z,69.12
2023-02-19T07:36:45.852Z,69.43
2023-02-19T07:37:46.048Z,68.91
2023-02-19T07:38:46.233Z,68.51
2023-02-19T07:39:46.421Z,68.71
2023-02-19T07:40:46.585Z,68.40
2023-02-19T07:41:46.771Z,68.61
2023-02-19T07:42:46.945Z,67.79
2023-02-19T07:43:47.135Z,68.40
2023-02-19T07:44:47.333Z,68.57
2023-02-19T07:45:47.524Z,68.06
2023-02-19T07:46:47.667Z,67.76
2023-02-19T07:47:47.846Z,67.76
2023-02-19T07:48:48.028Z,66.80
2023-02-19T07:49:48.229Z,66.90
2023-02-19T07:50:48.356Z,66.36
2023-02-19T07:51:48.542Z,66.56
2023-02-19T07:52:48.715Z,66.02
2023-02-19T07:53:48.916Z,65.48
2023-02-19T07:54:49.065Z,65.75
2023-02-19T07:55:49.228Z,64.83
2023-02-19T07:56:49.385Z,64.90
2023-02-19T07:57:49.566Z,64.18
2023-02-19T07:58:49.745Z,64.29
2023-02-19T07:59:49.966Z,64.47
2023-02-19T08:00:50.132Z,63.51
2023-02-19T08:01:50.305Z,61.85
2023-02-19T08:02:50.488Z,62.02
2023-02-19T08:03:50.673Z,61.69
2023-02-19T08:04:50.876Z,60.74
2023-02-19T08:05:51.048Z,59.92
2023-02-19T08:06:51.233Z,58.87
2023-02-19T08:07:51.425Z,59.18
2023-02-19T08:08:51.606Z,59.16
2023-02-19T08:09:51.805Z,58.34
2023-02-19T08:10:51.946Z,58.34
2023-02-19T08:11:52.156Z,58.23
2023-02-19T08:12:52.286Z,58.21
2023-02-19T08:13:52.474Z,58.51
2023-02-19T08:14:52.641Z,57.09
2023-02-19T08:15:52.794Z,56.88
2023-02-19T08:16:53.142Z,57.37
2023-02-19T08:17:53.160Z,57.47
2023-02-19T08:18:53.326Z,57.65
2023-02-19T08:19:53.531Z,55.99
2023-02-19T08:20:53.663Z,55.46
2023-02-19T08:21:53.867Z,55.76
2023-02-19T08:22:54.037Z,55.46
2023-02-19T08:23:54.215Z,55.02
2023-02-19T08:24:54.414Z,54.00
2023-02-19T08:25:54.568Z,54.00
2023-02-19T08:26:54.755Z,54.61
2023-02-19T08:27:54.947Z,54.18
2023-02-19T08:28:55.125Z,52.96
2023-02-19T08:29:55.359Z,52.84
2023-02-19T08:30:55.504Z,52.10
2023-02-19T08:31:55.727Z,51.44
2023-02-19T08:32:55.814Z,50.31
2023-02-19T08:33:56.004Z,48.54
2023-02-19T08:34:56.174Z,48.71
2023-02-19T08:35:56.333Z,48.18
2023-02-19T08:36:56.512Z,46.75
2023-02-19T08:37:56.673Z,47.71
2023-02-19T08:38:56.853Z,45.99
2023-02-19T08:39:57.040Z,46.09
2023-02-19T08:40:57.262Z,46.07
2023-02-19T08:41:57.363Z,45.97
2023-02-19T08:42:57.524Z,45.16
2023-02-19T08:43:57.693Z,46.07
2023-02-19T08:44:57.874Z,45.26
2023-02-19T08:45:58.060Z,45.16
2023-02-19T08:46:58.211Z,45.77
2023-02-19T08:47:58.381Z,45.25
2023-02-19T08:48:58.552Z,44.62
2023-02-19T08:49:58.767Z,44.34
2023-02-19T08:50:58.891Z,45.51
2023-02-19T08:51:59.061Z,46.42
2023-02-19T08:52:59.239Z,45.79
2023-02-19T08:53:59.420Z,45.16
2023-02-19T08:54:59.621Z,44.68
2023-02-19T08:55:59.781Z,44.96
2023-02-19T08:56:59.949Z,44.92
2023-02-19T08:58:00.138Z,43.46
2023-02-19T08:59:00.323Z,42.46
2023-02-19T09:00:00.510Z,43.12
2023-02-19T09:01:00.701Z,42.58
2023-02-19T09:02:00.842Z,40.55
2023-02-19T09:03:01.023Z,39.72
2023-02-19T09:04:01.244Z,39.60
2023-02-19T09:05:01.391Z,39.38
2023-02-19T09:06:01.545Z,39.60
2023-02-19T09:07:01.734Z,40.04
2023-02-19T09:08:01.926Z,41.59
2023-02-19T09:09:02.104Z,41.81
2023-02-19T09:10:02.292Z,41.81
2023-02-19T09:11:02.449Z,41.25
2023-02-19T09:12:02.621Z,41.97
2023-02-19T09:13:02.792Z,42.92
2023-02-19T09:14:02.952Z,42.96
2023-02-19T09:15:03.160Z,44.42
2023-02-19T09:16:03.325Z,45.87
2023-02-19T09:17:03.491Z,47.16
2023-02-19T09:18:03.632Z,47.91
2023-02-19T09:19:03.811Z,48.75
2023-02-19T09:20:04.031Z,49.58
2023-02-19T09:21:04.171Z,49.26
2023-02-19T09:22:04.336Z,48.42
2023-02-19T09:23:04.511Z,48.42
2023-02-19T09:24:04.704Z,48.85
2023-02-19T09:25:04.915Z,49.89
2023-02-19T09:26:05.073Z,50.17
2023-02-19T09:27:05.261Z,49.33
2023-02-19T09:28:05.440Z,48.78
2023-02-19T09:29:05.613Z,47.05
2023-02-19T09:30:05.843Z,44.92
2023-02-19T09:31:06.115Z,42.84
2023-02-19T09:32:06.174Z,41.55
2023-02-19T09:33:06.328Z,41.95
2023-02-19T09:34:06.503Z,41.11
2023-02-19T09:35:06.704Z,41.51
2023-02-19T09:36:06.844Z,40.48
2023-02-19T09:37:07.045Z,40.58
2023-02-19T09:38:07.204Z,40.70
2023-02-19T09:39:07.379Z,41.97
2023-02-19T09:40:07.564Z,43.12
2023-02-19T09:41:07.713Z,43.28
2023-02-19T09:42:07.879Z,41.95
2023-02-19T09:43:08.045Z,43.28
2023-02-19T09:44:08.215Z,42.88
2023-02-19T09:45:08.427Z,42.01
2023-02-19T09:46:08.616Z,43.02
2023-02-19T09:47:08.766Z,42.80
2023-02-19T09:48:08.906Z,42.54
2023-02-19T09:49:09.096Z,43.61
2023-02-19T09:50:09.294Z,44.76
2023-02-19T09:51:09.574Z,44.80
2023-02-19T09:52:09.626Z,43.02
2023-02-19T09:53:09.807Z,41.85
2023-02-19T09:54:09.998Z,42.60
2023-02-19T09:55:10.206Z,41.93
2023-02-19T09:56:10.350Z,43.29
2023-02-19T09:57:10.524Z,43.71
2023-02-19T09:58:10.674Z,43.73
2023-02-19T09:59:10.861Z,44.76
2023-02-19T10:00:11.058Z,45.27
2023-02-19T10:01:11.616Z,45.87
2023-02-19T10:02:11.383Z,46.51
2023-02-19T10:03:11.563Z,46.35
2023-02-19T10:04:11.730Z,48.19
2023-02-19T10:05:11.959Z,47.79
2023-02-19T10:06:12.052Z,48.19
2023-02-19T10:07:12.243Z,47.71
2023-02-19T10:08:12.413Z,47.61
2023-02-19T10:09:12.612Z,48.04
2023-02-19T10:10:12.799Z,47.86
2023-02-19T10:11:13.312Z,48.57
2023-02-19T10:12:13.122Z,48.90
2023-02-19T10:13:13.324Z,48.92
2023-02-19T10:14:13.481Z,48.31
2023-02-19T10:15:13.662Z,49.15
2023-02-19T10:16:13.850Z,49.76
2023-02-19T10:17:14.023Z,50.19
2023-02-19T10:18:14.168Z,50.80
2023-02-19T10:19:14.353Z,50.70
2023-02-19T10:20:14.524Z,50.09
2023-02-19T10:21:14.662Z,50.31
2023-02-19T10:22:14.860Z,50.62
2023-02-19T10:23:15.050Z,51.43
2023-02-19T10:24:15.204Z,52.25
2023-02-19T10:25:15.401Z,51.64
2023-02-19T10:26:15.554Z,51.13
2023-02-19T10:27:15.746Z,51.05
2023-02-19T10:28:15.893Z,51.97
2023-02-19T10:29:16.082Z,50.87
2023-02-19T10:30:16.347Z,50.05
2023-02-19T10:31:17.896Z,50.99
2023-02-19T10:32:16.644Z,51.51
2023-02-19T10:33:16.780Z,51.91
2023-02-19T10:34:16.954Z,52.53
2023-02-19T10:35:17.176Z,52.53
2023-02-19T10:36:17.311Z,52.53
2023-02-19T10:37:17.501Z,52.42
2023-02-19T10:38:17.683Z,52.73
2023-02-19T10:39:17.864Z,52.73
2023-02-19T10:40:18.125Z,53.03
2023-02-19T10:41:18.242Z,53.03
2023-02-19T10:42:18.411Z,53.24
2023-02-19T10:43:18.603Z,52.55
2023-02-19T10:44:18.750Z,51.73
2023-02-19T10:45:18.954Z,50.92
2023-02-19T10:46:19.151Z,50.00
2023-02-19T10:47:19.267Z,50.10
2023-02-19T10:48:19.443Z,50.23
2023-02-19T10:49:19.632Z,50.53
2023-02-19T10:50:19.833Z,50.53
2023-02-19T10:51:19.983Z,50.63
2023-02-19T10:52:20.164Z,51.04
2023-02-19T10:53:20.357Z,51.45
2023-02-19T10:54:20.538Z,51.86
2023-02-19T10:55:20.773Z,52.58
2023-02-19T10:56:20.897Z,51.15
2023-02-19T10:57:21.084Z,51.45
2023-02-19T10:58:21.275Z,51.98
2023-02-19T10:59:21.461Z,52.67
2023-02-19T11:00:21.619Z,52.67
2023-02-19T11:01:21.872Z,51.68
2023-02-19T11:02:21.935Z,51.37
2023-02-19T11:03:22.123Z,51.89
2023-02-19T11:04:22.377Z,52.50
2023-02-19T11:05:22.482Z,52.39
2023-02-19T11:06:22.675Z,51.89
2023-02-19T11:07:22.850Z,51.37
2023-02-19T11:08:22.991Z,51.17
2023-02-19T11:09:23.181Z,51.15
2023-02-19T11:10:23.371Z,51.25
2023-02-19T11:11:23.554Z,51.04
2023-02-19T11:12:23.683Z,51.65
2023-02-19T11:13:23.874Z,50.94
2023-02-19T11:14:24.176Z,51.04
2023-02-19T11:15:24.248Z,51.48
2023-02-19T11:16:24.426Z,51.17
2023-02-19T11:17:24.553Z,51.37
2023-02-19T11:18:24.812Z,51.37
2023-02-19T11:19:24.932Z,51.17
2023-02-19T11:20:25.140Z,50.45
2023-02-19T11:21:25.279Z,49.84
2023-02-19T11:22:25.461Z,49.95
2023-02-19T11:23:25.651Z,49.84
2023-02-19T11:24:25.845Z,49.71
2023-02-19T11:25:26.040Z,49.92
2023-02-19T11:26:26.193Z,50.74
2023-02-19T11:27:26.369Z,50.51
2023-02-19T11:28:26.499Z,50.41
2023-02-19T11:29:26.689Z,49.38
2023-02-19T11:30:26.925Z,49.08
2023-02-19T11:31:27.133Z,49.08
2023-02-19T11:32:27.335Z,50.10
2023-02-19T11:33:27.510Z,49.59
2023-02-19T11:34:27.553Z,47.96
2023-02-19T11:35:27.767Z,47.53
2023-02-19T11:36:30.119Z,47.63
2023-02-19T11:37:28.091Z,46.92
2023-02-19T11:38:28.272Z,47.53
2023-02-19T11:39:28.453Z,47.65
2023-02-19T11:40:28.664Z,48.16
2023-02-19T11:41:28.803Z,48.47
2023-02-19T11:42:29.598Z,48.67
2023-02-19T11:43:29.172Z,48.39
2023-02-19T11:44:29.353Z,48.90
2023-02-19T11:45:29.556Z,48.49
2023-02-19T11:46:29.772Z,48.59
2023-02-19T11:47:29.893Z,48.28
2023-02-19T11:48:30.384Z,48.31
2023-02-19T11:49:30.255Z,48.10
2023-02-19T11:50:30.466Z,49.13
2023-02-19T11:51:30.610Z,48.72
2023-02-19T11:52:30.809Z,48.41
2023-02-19T11:53:30.959Z,47.80
2023-02-19T11:54:31.147Z,48.00
2023-02-19T11:55:31.315Z,48.72
2023-02-19T11:56:31.454Z,48.82
2023-02-19T11:57:31.643Z,48.92
2023-02-19T11:58:31.837Z,49.54
2023-02-19T11:59:32.027Z,49.84
2023-02-19T12:00:32.214Z,49.74
2023-02-19T12:01:32.361Z,49.82
2023-02-19T12:02:32.550Z,49.00
2023-02-19T12:03:32.740Z,49.21
2023-02-19T12:04:32.921Z,49.00
2023-02-19T12:05:33.129Z,48.98
2023-02-19T12:06:33.268Z,48.77
2023-02-19T12:07:33.441Z,49.18
2023-02-19T12:08:33.630Z,48.77
2023-02-19T12:09:33.811Z,48.26
2023-02-19T12:10:34.011Z,48.57
2023-02-19T12:11:34.172Z,48.06
2023-02-19T12:12:36.774Z,47.96
2023-02-19T12:13:34.541Z,48.47
2023-02-19T12:14:34.725Z,49.37
2023-02-19T12:15:34.932Z,48.75
2023-02-19T12:16:35.116Z,48.75
2023-02-19T12:17:35.240Z,49.13
2023-02-19T12:18:35.432Z,48.22
2023-02-19T12:19:35.614Z,48.11
2023-02-19T12:20:35.783Z,46.79
2023-02-19T12:21:35.939Z,46.18
2023-02-19T12:22:36.090Z,46.51
2023-02-19T12:23:36.288Z,47.22
2023-02-19T12:24:36.430Z,46.71
2023-02-19T12:25:36.630Z,47.12
2023-02-19T12:26:36.829Z,46.71
2023-02-19T12:27:36.975Z,47.63
2023-02-19T12:28:37.150Z,47.42
2023-02-19T12:29:37.355Z,48.03
2023-02-19T12:30:37.580Z,46.92
2023-02-19T12:31:37.686Z,46.81
2023-02-19T12:32:37.826Z,46.81
2023-02-19T12:33:38.021Z,47.12
2023-02-19T12:34:38.159Z,45.39
2023-02-19T12:35:38.369Z,46.20
2023-02-19T12:36:38.509Z,46.41
2023-02-19T12:37:38.699Z,46.48
2023-02-19T12:38:38.855Z,46.48
2023-02-19T12:39:39.036Z,47.00
2023-02-19T12:40:39.235Z,46.69
2023-02-19T12:41:39.387Z,46.69
2023-02-19T12:42:39.568Z,46.28
2023-02-19T12:43:39.768Z,46.79
2023-02-19T12:44:39.908Z,46.18
2023-02-19T12:45:40.132Z,46.30
2023-02-19T12:46:40.270Z,46.10
2023-02-19T12:47:40.452Z,46.41
2023-02-19T12:48:40.631Z,46.30
2023-02-19T12:49:40.833Z,46.71
2023-02-19T12:50:41.046Z,46.10
2023-02-19T12:51:41.178Z,46.10
2023-02-19T12:52:41.383Z,46.20
2023-02-19T12:53:41.559Z,46.41
2023-02-19T12:54:41.714Z,46.41